GCRR/ACE METAR and TAF weather

Enter ICAO airport designator
Station Type Date Time Source
GCRR METAR 2023/02/05 13:00 UTC NOAA

GCRR 051300Z 08008KT 9999 FEW035 18/12 Q1026


Station Type Date Time Source
GCRR Decoded METAR 2023/02/05 13:00 UTC NOAA

Lanzarote / Aeropuerto, Spain (GCRR) 28-57N 013-36W 21M
Feb 05, 2023 - 08:00 AM EST / 2023.02.05 1300 UTC
Wind: from the E (080 degrees) at 9 MPH (8 KT):0
Visibility: greater than 7 mile(s):0
Sky conditions: mostly clear
Temperature: 64 F (18 C)
Dew Point: 53 F (12 C)
Relative Humidity: 67%
Pressure (altimeter): 30.30 in. Hg (1026 hPa)
ob: GCRR 051300Z 08008KT 9999 FEW035 18/12 Q1026
cycle: 13

Station Type Date Time Source
GCRR TAF 2023/02/05 09:28 UTC NOAA

TAF GCRR 050800Z 0509/0609 10010KT 9999 FEW025 TX21/0514Z TN12/0606Z PROB30
TEMPO 0509/0510 02008KT
BECMG 0519/0521 01008KT

Example: see airport list